Terminal Aerodrome Forecast
Issued by NWS Twin Cities, MN

Home | Current Version | Previous Version | Graphics & Text | Print | Product List | Glossary On
Versions: 1 2 3 4 5 6 7 8 9 10 11 12 13 14 15
000
FTUS43 KMPX 010532
TAFSTC
TAF
KSTC 010532Z 0106/0206 19009KT 6SM -SN BKN035 OVC070
      TEMPO 0109/0111 BKN025
     FM011100 25006KT P6SM SCT030 BKN100
     FM011400 26009KT P6SM SCT100
     FM012100 28009G16KT P6SM FEW020=

USA.gov is the U.S. government's official web portal to all federal, state and local government web resources and services.